| Date | Time | Temp. (oF) | Dew Point (oF) | Rel. Hum. (%) | Press. (in.) | Wind Dir. | Wind Speed (mph) | Hourly Rainfall (in.) |
|
|---|---|---|---|---|---|---|---|---|---|
| 1 | 08/31 | 00:00 | 73 | 69 | 88 | 29.99 | SSE | 3 | 0.00 |
| 2 | 08/30 | 23:00 | 74 | 70 | 88 | 30.00 | SE | 0 | 0.00 |
| 3 | 08/30 | 22:00 | 75 | 70 | 86 | 29.98 | SSE | 3 | 0.00 |
| 4 | 08/30 | 21:00 | 77 | 73 | 88 | 30.00 | SE | 5 | 0.00 |
| 5 | 08/30 | 20:00 | 79 | 74 | 86 | 29.98 | SSE | 4 | 0.00 |
| 6 | 08/30 | 19:00 | 81 | 74 | 81 | 29.96 | E | 4 | 0.00 |
| 7 | 08/30 | 18:00 | 82 | 73 | 76 | 29.97 | S | 4 | 0.00 |
| 8 | 08/30 | 17:00 | 83 | 72 | 71 | 29.96 | SE | 6 | 0.00 |
| 9 | 08/30 | 16:00 | 83 | 74 | 76 | 29.98 | SE | 5 | 0.00 |
| 10 | 08/30 | 15:00 | 82 | 74 | 78 | 30.01 | SW | 5 | 0.00 |
| 11 | 08/30 | 14:00 | 80 | 70 | 73 | 30.03 | SSW | 11 | 0.00 |
| 12 | 08/30 | 13:00 | 79 | 68 | 70 | 30.04 | S | 6 | 0.00 |
| 13 | 08/30 | 12:00 | 78 | 68 | 74 | 30.05 | S | 4 | 0.00 |
| 14 | 08/30 | 11:00 | 74 | 71 | 91 | 30.07 | NE | 0 | 0.11 |
| 15 | 08/30 | 10:00 | 75 | 68 | 81 | 30.08 | NNE | 2 | 0.00 |
| 16 | 08/30 | 09:00 | 73 | 68 | 86 | 30.08 | ENE | 4 | 0.00 |
| 17 | 08/30 | 08:00 | 71 | 65 | 83 | 30.08 | ESE | 2 | 0.00 |
| 18 | 08/30 | 07:00 | 71 | 64 | 81 | 30.07 | ENE | 4 | 0.00 |
| 19 | 08/30 | 06:00 | 71 | 64 | 79 | 30.06 | E | 1 | 0.00 |
| 20 | 08/30 | 05:00 | 71 | 65 | 82 | 30.06 | SE | 0 | 0.00 |
| 21 | 08/30 | 04:00 | 71 | 64 | 80 | 30.05 | E | 3 | 0.00 |
| 22 | 08/30 | 03:00 | 71 | 64 | 81 | 30.06 | S | 0 | 0.00 |
| 23 | 08/30 | 02:00 | 71 | 64 | 79 | 30.05 | NE | 3 | 0.00 |
| 24 | 08/30 | 01:00 | 72 | 64 | 78 | 30.06 | E | 3 | 0.00 |